createdAt,value
2022-10-20T00:02:23.417Z,88.33
2022-10-20T00:04:50.016Z,88.66
2022-10-20T00:07:16.628Z,88.79
2022-10-20T00:09:45.890Z,89.00
2022-10-20T00:12:12.413Z,88.76
2022-10-20T00:14:38.978Z,88.17
2022-10-20T00:17:06.717Z,87.46
2022-10-20T00:19:33.242Z,87.57
2022-10-20T00:22:00.331Z,87.80
2022-10-20T00:24:28.637Z,87.57
2022-10-20T00:26:55.259Z,87.48
2022-10-20T00:29:22.018Z,87.47
2022-10-20T00:31:48.781Z,87.74
2022-10-20T00:34:19.722Z,87.13
2022-10-20T00:36:50.445Z,86.25
2022-10-20T00:39:18.051Z,86.37
2022-10-20T00:41:44.570Z,86.11
2022-10-20T00:44:48.808Z,87.19
2022-10-20T00:47:39.193Z,88.28
2022-10-20T00:50:12.714Z,88.91
2022-10-20T00:52:41.837Z,87.92
2022-10-20T00:55:12.035Z,88.39
2022-10-20T00:57:39.040Z,88.00
2022-10-20T01:00:08.859Z,89.05
2022-10-20T01:02:37.870Z,89.71
2022-10-20T01:05:05.331Z,89.26
2022-10-20T01:07:32.268Z,89.23
2022-10-20T01:09:59.246Z,88.42
2022-10-20T01:12:34.037Z,88.58
2022-10-20T01:15:35.956Z,88.96
2022-10-20T01:18:14.386Z,88.51
2022-10-20T01:21:04.873Z,88.22
2022-10-20T01:24:17.895Z,87.61
2022-10-20T01:27:06.830Z,86.97
2022-10-20T01:29:44.377Z,86.50
2022-10-20T01:32:24.505Z,86.85
2022-10-20T01:35:05.512Z,87.12
2022-10-20T01:37:49.480Z,86.87
2022-10-20T01:40:28.748Z,86.06
2022-10-20T01:42:58.817Z,86.07
2022-10-20T01:45:30.484Z,85.71
2022-10-20T01:47:59.619Z,85.41
2022-10-20T01:50:27.006Z,84.78
2022-10-20T01:52:58.765Z,85.29
2022-10-20T01:55:25.939Z,85.28
2022-10-20T01:58:23.933Z,85.32
2022-10-20T02:03:31.731Z,85.66
2022-10-20T02:06:28.644Z,85.64
2022-10-20T02:09:01.273Z,86.56
2022-10-20T02:11:40.944Z,86.28
2022-10-20T02:14:13.765Z,87.02
2022-10-20T02:16:47.244Z,86.80
2022-10-20T02:19:17.438Z,86.51
2022-10-20T02:21:44.747Z,86.82
2022-10-20T02:24:16.206Z,86.51
2022-10-20T02:26:44.291Z,86.16
2022-10-20T02:29:15.974Z,86.08
2022-10-20T02:31:44.694Z,86.72
2022-10-20T02:34:12.210Z,86.32
2022-10-20T02:36:42.745Z,86.66
2022-10-20T02:39:10.145Z,86.52
2022-10-20T02:41:37.216Z,86.65
2022-10-20T02:44:04.495Z,86.20
2022-10-20T02:46:30.991Z,86.51
2022-10-20T02:48:57.729Z,86.27
2022-10-20T02:51:24.229Z,85.88
2022-10-20T02:53:50.712Z,85.77
2022-10-20T02:56:17.321Z,85.60
2022-10-20T02:58:44.478Z,85.61
2022-10-20T03:01:11.032Z,85.49
2022-10-20T03:03:37.657Z,85.92
2022-10-20T03:06:13.853Z,85.66
2022-10-20T03:08:42.584Z,85.87
2022-10-20T03:11:16.112Z,85.98
2022-10-20T03:13:44.357Z,85.55
2022-10-20T03:16:11.080Z,86.21
2022-10-20T03:18:37.580Z,85.80
2022-10-20T03:21:04.249Z,85.77
2022-10-20T03:23:30.804Z,85.43
2022-10-20T03:26:06.138Z,85.02
2022-10-20T03:28:34.246Z,85.25
2022-10-20T03:31:00.788Z,85.21
2022-10-20T03:33:27.578Z,85.06
2022-10-20T03:35:56.111Z,85.18
2022-10-20T03:38:22.972Z,84.75
2022-10-20T03:40:49.918Z,84.70
2022-10-20T03:43:16.757Z,84.42
2022-10-20T03:45:46.391Z,85.04
2022-10-20T03:48:14.793Z,84.96
2022-10-20T03:50:43.361Z,84.89
2022-10-20T03:53:16.360Z,84.65
2022-10-20T03:55:42.893Z,84.56
2022-10-20T03:58:11.183Z,84.98
2022-10-20T04:00:37.886Z,85.73
2022-10-20T04:03:04.337Z,86.01
2022-10-20T04:05:31.994Z,85.26
2022-10-20T04:07:59.761Z,85.07
2022-10-20T04:10:26.578Z,85.17
2022-10-20T04:12:53.418Z,85.42
2022-10-20T04:15:20.060Z,86.04
2022-10-20T04:17:47.583Z,85.90
2022-10-20T04:20:14.613Z,85.89
2022-10-20T04:22:41.328Z,86.13
2022-10-20T04:25:08.102Z,85.22
2022-10-20T04:27:35.083Z,85.27
2022-10-20T04:30:04.105Z,85.65
2022-10-20T04:32:30.592Z,85.73
2022-10-20T04:34:57.481Z,85.16
2022-10-20T04:37:26.402Z,84.91
2022-10-20T04:39:53.320Z,84.72
2022-10-20T04:42:20.304Z,84.94
2022-10-20T04:44:47.025Z,84.77
2022-10-20T04:47:15.115Z,86.07
2022-10-20T04:49:41.642Z,86.69
2022-10-20T04:52:09.211Z,86.33
2022-10-20T04:54:35.997Z,86.18
2022-10-20T04:57:04.196Z,86.00
2022-10-20T04:59:30.739Z,85.38
2022-10-20T05:01:57.697Z,85.11
2022-10-20T05:04:24.997Z,85.43
2022-10-20T05:06:53.424Z,85.21
2022-10-20T05:09:20.164Z,84.92
2022-10-20T05:11:46.966Z,85.41
2022-10-20T05:14:13.859Z,85.74
2022-10-20T05:16:40.490Z,85.34
2022-10-20T05:19:09.223Z,85.71
2022-10-20T05:21:35.819Z,86.02
2022-10-20T05:24:05.121Z,86.84
2022-10-20T05:26:39.465Z,86.47
2022-10-20T05:29:08.475Z,87.42
2022-10-20T05:31:40.703Z,87.54
2022-10-20T05:34:09.020Z,87.15
2022-10-20T05:36:37.014Z,86.62
2022-10-20T05:39:04.356Z,85.60
2022-10-20T05:41:36.289Z,85.73
2022-10-20T05:44:09.059Z,85.23
2022-10-20T05:46:42.573Z,84.81
2022-10-20T05:49:17.818Z,84.91
2022-10-20T05:51:46.789Z,84.50
2022-10-20T05:54:14.182Z,85.46
2022-10-20T05:56:41.297Z,85.04
2022-10-20T05:59:07.913Z,85.51
2022-10-20T06:01:50.389Z,85.20
2022-10-20T06:04:25.444Z,85.13
2022-10-20T06:06:53.052Z,84.93
2022-10-20T06:09:44.882Z,84.77
2022-10-20T06:12:11.383Z,84.19
2022-10-20T06:14:38.002Z,83.93
2022-10-20T06:17:04.544Z,83.55
2022-10-20T06:19:31.126Z,83.99
2022-10-20T06:22:03.784Z,83.54
2022-10-20T06:24:33.257Z,84.11
2022-10-20T06:27:00.506Z,83.21
2022-10-20T06:29:27.299Z,82.77
2022-10-20T06:31:56.544Z,83.11
2022-10-20T06:34:26.030Z,83.26
2022-10-20T06:36:52.928Z,84.02
2022-10-20T06:39:24.616Z,84.50
2022-10-20T06:41:54.271Z,92.61
2022-10-20T06:44:23.278Z,88.41
2022-10-20T06:46:52.366Z,87.09
2022-10-20T06:49:20.476Z,83.32
2022-10-20T06:51:47.232Z,84.60
2022-10-20T06:54:13.958Z,87.19
2022-10-20T06:56:41.020Z,86.51
2022-10-20T06:59:07.916Z,84.24
2022-10-20T07:01:36.353Z,81.70
2022-10-20T07:04:10.855Z,81.12
2022-10-20T07:06:40.212Z,81.03
2022-10-20T07:09:09.084Z,81.26
2022-10-20T07:11:35.847Z,80.82
2022-10-20T07:14:04.901Z,81.22
2022-10-20T07:16:33.894Z,81.42
2022-10-20T07:19:01.820Z,81.90
2022-10-20T07:21:35.631Z,82.45
2022-10-20T07:24:06.089Z,82.58
2022-10-20T07:26:35.277Z,83.31
2022-10-20T07:29:04.066Z,82.79
2022-10-20T07:31:37.749Z,83.26
2022-10-20T07:34:14.067Z,83.43
2022-10-20T07:36:52.329Z,83.12
2022-10-20T07:39:19.736Z,84.13
2022-10-20T07:41:48.236Z,85.26
2022-10-20T07:44:15.588Z,85.31
2022-10-20T07:46:42.516Z,85.21
2022-10-20T07:51:56.193Z,84.09
2022-10-20T07:54:23.005Z,83.79
2022-10-20T07:56:49.855Z,83.33
2022-10-20T07:59:16.574Z,82.90
2022-10-20T08:01:44.015Z,82.56
2022-10-20T08:04:11.064Z,83.32
2022-10-20T08:06:39.105Z,82.14
2022-10-20T08:09:06.294Z,81.70
2022-10-20T08:11:33.400Z,81.10
2022-10-20T08:14:01.061Z,81.73
2022-10-20T08:16:28.449Z,80.57
2022-10-20T08:19:09.088Z,80.07
2022-10-20T08:21:35.701Z,78.49
2022-10-20T08:24:03.006Z,77.15
2022-10-20T08:26:29.716Z,77.05
2022-10-20T08:28:56.280Z,76.52
2022-10-20T08:31:23.472Z,76.21
2022-10-20T08:33:52.829Z,75.95
2022-10-20T08:36:22.401Z,75.98
2022-10-20T08:38:48.966Z,76.71
2022-10-20T08:41:34.530Z,77.00
2022-10-20T08:44:03.541Z,77.93
2022-10-20T08:46:34.151Z,78.63
2022-10-20T08:49:03.521Z,78.62
2022-10-20T08:51:39.081Z,79.18
2022-10-20T08:54:12.767Z,79.36
2022-10-20T08:56:39.572Z,79.28
2022-10-20T08:59:25.422Z,78.87
2022-10-20T09:01:52.873Z,79.13
2022-10-20T09:04:22.159Z,78.79
2022-10-20T09:06:54.992Z,78.01
2022-10-20T09:09:24.249Z,77.64
2022-10-20T09:11:53.076Z,78.16
2022-10-20T09:14:21.000Z,78.31
2022-10-20T09:16:59.688Z,78.17
2022-10-20T09:19:27.536Z,79.17
2022-10-20T09:21:57.756Z,79.46
2022-10-20T09:24:27.551Z,79.80
2022-10-20T09:26:59.050Z,78.59
2022-10-20T09:29:38.671Z,79.48
2022-10-20T09:32:45.097Z,78.98
2022-10-20T09:35:29.376Z,78.82
2022-10-20T09:38:29.999Z,79.08
2022-10-20T09:41:02.809Z,79.27
2022-10-20T09:43:29.721Z,78.70
2022-10-20T09:46:00.138Z,78.70
2022-10-20T09:48:32.961Z,78.47
2022-10-20T09:51:00.670Z,77.51
2022-10-20T09:53:32.560Z,78.12
2022-10-20T09:55:59.406Z,77.33
2022-10-20T09:58:32.597Z,77.79
2022-10-20T10:01:03.306Z,77.52
2022-10-20T10:03:39.647Z,77.22
2022-10-20T10:06:20.029Z,76.86
2022-10-20T10:08:47.472Z,76.97
2022-10-20T10:11:19.599Z,76.49
2022-10-20T10:13:49.918Z,77.40
2022-10-20T10:16:20.062Z,77.72
2022-10-20T10:18:57.583Z,77.53
2022-10-20T10:21:24.409Z,77.70
2022-10-20T10:23:57.090Z,77.58
2022-10-20T10:26:45.260Z,77.26
2022-10-20T10:29:26.569Z,77.24
2022-10-20T10:32:15.339Z,77.06
2022-10-20T10:34:54.266Z,77.06
2022-10-20T10:37:22.327Z,77.98
2022-10-20T10:39:49.441Z,77.83
2022-10-20T10:42:43.398Z,77.97
2022-10-20T10:45:24.425Z,78.38
2022-10-20T10:47:56.972Z,78.56
2022-10-20T10:50:56.876Z,78.13
2022-10-20T10:53:45.586Z,78.40
2022-10-20T10:56:20.032Z,78.12
2022-10-20T10:58:56.462Z,77.93
2022-10-20T11:01:50.304Z,78.12
2022-10-20T11:04:48.518Z,77.73
2022-10-20T11:07:43.097Z,77.99
2022-10-20T11:10:29.953Z,77.92
2022-10-20T11:13:26.203Z,77.58
2022-10-20T11:16:22.877Z,77.90
2022-10-20T11:19:05.002Z,77.54
2022-10-20T11:21:45.893Z,77.17
2022-10-20T11:24:37.907Z,77.91
2022-10-20T11:27:14.126Z,77.33
2022-10-20T11:29:50.832Z,77.39
2022-10-20T11:32:53.540Z,77.50
2022-10-20T11:35:35.335Z,77.50
2022-10-20T11:38:23.800Z,77.04
2022-10-20T11:41:13.012Z,77.66
2022-10-20T11:44:04.393Z,78.05
2022-10-20T11:46:42.351Z,78.49
2022-10-20T11:49:12.358Z,79.02
2022-10-20T11:52:08.202Z,78.26
2022-10-20T11:54:53.492Z,78.32
2022-10-20T11:57:38.617Z,78.42
2022-10-20T12:00:37.744Z,78.16
2022-10-20T12:03:26.328Z,77.96
2022-10-20T12:05:56.791Z,77.70
2022-10-20T12:09:01.321Z,77.83
2022-10-20T12:11:46.240Z,77.83
2022-10-20T12:14:15.924Z,78.13
2022-10-20T12:16:54.512Z,77.74
2022-10-20T12:19:22.684Z,78.02
2022-10-20T12:22:30.977Z,78.22
2022-10-20T12:24:57.524Z,78.79
2022-10-20T12:27:28.200Z,78.95
2022-10-20T12:29:58.409Z,78.60
2022-10-20T12:32:37.326Z,78.53
2022-10-20T12:35:10.016Z,78.27
2022-10-20T12:37:42.159Z,78.34
2022-10-20T12:40:11.374Z,78.16
2022-10-20T12:42:42.376Z,78.83
2022-10-20T12:45:17.942Z,78.59
2022-10-20T12:47:51.245Z,78.93
2022-10-20T12:50:25.402Z,79.34
2022-10-20T12:52:52.067Z,79.52
2022-10-20T12:55:24.929Z,79.27
2022-10-20T12:58:10.609Z,79.87
2022-10-20T13:00:37.188Z,80.02
2022-10-20T13:03:43.701Z,80.10
2022-10-20T13:06:22.915Z,80.09
2022-10-20T13:09:05.243Z,80.89
2022-10-20T13:11:40.908Z,80.89
2022-10-20T13:14:13.640Z,81.10
2022-10-20T13:16:58.145Z,81.14
2022-10-20T13:19:39.310Z,81.03
2022-10-20T13:22:31.315Z,81.27
2022-10-20T13:25:00.279Z,81.07
2022-10-20T13:27:30.508Z,81.93
2022-10-20T13:29:58.809Z,81.96
2022-10-20T13:33:01.849Z,82.38
2022-10-20T13:35:42.923Z,82.05
2022-10-20T13:38:26.416Z,81.88
2022-10-20T13:41:14.087Z,81.94
2022-10-20T13:43:57.545Z,81.55
2022-10-20T13:46:44.045Z,81.97
2022-10-20T13:49:17.652Z,82.35
2022-10-20T13:51:49.808Z,82.88
2022-10-20T13:54:32.111Z,82.64
2022-10-20T13:56:59.058Z,83.08
2022-10-20T13:59:28.372Z,83.35
2022-10-20T14:01:58.124Z,83.14
2022-10-20T14:04:26.477Z,84.85
2022-10-20T14:06:53.671Z,85.28
2022-10-20T14:09:25.620Z,87.38
2022-10-20T14:12:06.465Z,87.54
2022-10-20T14:14:33.992Z,88.17
2022-10-20T14:17:05.339Z,89.48
2022-10-20T14:19:33.644Z,89.64
2022-10-20T14:22:11.497Z,88.71
2022-10-20T14:24:42.969Z,89.04
2022-10-20T14:27:17.418Z,89.28
2022-10-20T14:29:44.926Z,90.11
2022-10-20T14:32:19.056Z,90.66
2022-10-20T14:35:13.762Z,91.68
2022-10-20T14:37:45.455Z,92.19
2022-10-20T14:40:25.259Z,94.10
2022-10-20T14:42:52.692Z,94.00
2022-10-20T14:45:20.936Z,94.12
2022-10-20T14:47:48.876Z,95.36
2022-10-20T14:50:31.343Z,94.43
2022-10-20T14:53:17.132Z,94.50
2022-10-20T14:55:43.890Z,93.93
2022-10-20T14:58:31.070Z,93.49
2022-10-20T15:01:27.942Z,93.21
2022-10-20T15:04:16.140Z,92.63
2022-10-20T15:06:46.058Z,92.88
2022-10-20T15:09:27.237Z,92.86
2022-10-20T15:11:54.548Z,92.59
2022-10-20T15:14:21.325Z,92.67
2022-10-20T15:16:48.741Z,92.76
2022-10-20T15:19:31.324Z,92.59
2022-10-20T15:22:01.294Z,92.62
2022-10-20T15:24:29.165Z,91.72
2022-10-20T15:26:56.581Z,92.22
2022-10-20T15:29:24.126Z,92.42
2022-10-20T15:31:50.918Z,92.10
2022-10-20T15:34:20.227Z,92.03
2022-10-20T15:36:48.933Z,91.88
2022-10-20T15:39:18.246Z,92.57
2022-10-20T15:41:45.167Z,92.60
2022-10-20T15:44:19.498Z,92.86
2022-10-20T15:46:46.440Z,93.56
2022-10-20T15:49:13.552Z,93.92
2022-10-20T15:51:43.924Z,94.29
2022-10-20T15:54:14.374Z,94.48
2022-10-20T15:56:40.981Z,95.23
2022-10-20T15:59:07.758Z,95.31
2022-10-20T16:01:34.716Z,95.33
2022-10-20T16:04:03.197Z,95.69
2022-10-20T16:06:29.751Z,95.04
2022-10-20T16:08:56.304Z,94.64
2022-10-20T16:11:24.988Z,94.87
2022-10-20T16:13:51.482Z,95.18
2022-10-20T16:16:20.246Z,95.37
2022-10-20T16:18:49.081Z,95.59
2022-10-20T16:21:17.390Z,94.96
2022-10-20T16:23:45.048Z,94.37
2022-10-20T16:26:13.587Z,94.82
2022-10-20T16:28:40.514Z,95.15
2022-10-20T16:31:11.197Z,95.06
2022-10-20T16:33:38.060Z,95.40
2022-10-20T16:38:39.081Z,94.88
2022-10-20T16:41:10.535Z,95.36
2022-10-20T16:43:38.788Z,94.82
2022-10-20T16:46:07.924Z,95.84
2022-10-20T16:48:37.875Z,96.47
2022-10-20T16:51:06.385Z,96.17
2022-10-20T16:53:32.879Z,95.96
2022-10-20T16:56:00.017Z,96.95
2022-10-20T16:58:27.923Z,96.97
2022-10-20T17:01:04.507Z,96.76
2022-10-20T17:03:31.143Z,96.76
2022-10-20T17:06:09.489Z,96.65
2022-10-20T17:09:21.480Z,97.06
2022-10-20T17:14:40.801Z,96.54
2022-10-20T17:17:07.550Z,96.62
2022-10-20T17:19:35.604Z,95.94
2022-10-20T17:22:02.352Z,96.01
2022-10-20T17:24:29.069Z,95.74
2022-10-20T17:26:55.780Z,95.14
2022-10-20T17:29:25.936Z,95.45
2022-10-20T17:31:53.166Z,95.88
2022-10-20T17:34:19.735Z,96.50
2022-10-20T17:36:46.602Z,96.92
2022-10-20T17:39:16.590Z,95.57
2022-10-20T17:41:43.864Z,94.48
2022-10-20T17:44:10.649Z,93.88
2022-10-20T17:46:37.220Z,93.41
2022-10-20T17:49:04.125Z,93.32
2022-10-20T17:51:33.705Z,93.53
2022-10-20T17:54:01.945Z,93.40
2022-10-20T17:56:31.951Z,93.22
2022-10-20T17:59:02.902Z,93.53
2022-10-20T18:01:42.082Z,93.55
2022-10-20T18:04:12.105Z,94.43
2022-10-20T18:06:39.906Z,94.44
2022-10-20T18:09:10.994Z,94.74
2022-10-20T18:11:40.095Z,94.51
2022-10-20T18:14:07.871Z,94.99
2022-10-20T18:16:38.137Z,94.49
2022-10-20T18:19:06.209Z,94.32
2022-10-20T18:21:33.429Z,94.13
2022-10-20T18:24:04.724Z,93.92
2022-10-20T18:26:38.408Z,93.93
2022-10-20T18:29:08.079Z,93.94
2022-10-20T18:31:36.360Z,94.18
2022-10-20T18:34:07.354Z,93.79
2022-10-20T18:36:37.006Z,94.05
2022-10-20T18:39:09.047Z,93.49
2022-10-20T18:41:40.724Z,93.56
2022-10-20T18:44:16.535Z,94.16
2022-10-20T18:47:09.157Z,94.83
2022-10-20T18:49:39.703Z,95.44
2022-10-20T18:52:06.485Z,95.30
2022-10-20T18:54:35.281Z,96.44
2022-10-20T18:57:06.085Z,96.36
2022-10-20T18:59:33.833Z,96.38
2022-10-20T19:02:00.368Z,96.75
2022-10-20T19:04:27.246Z,96.51
2022-10-20T19:06:54.088Z,96.85
2022-10-20T19:09:34.517Z,96.38
2022-10-20T19:12:02.123Z,96.55
2022-10-20T19:14:33.311Z,96.84
2022-10-20T19:16:59.819Z,96.74
2022-10-20T19:19:26.711Z,96.80
2022-10-20T19:21:54.537Z,96.68
2022-10-20T19:24:24.048Z,97.49
2022-10-20T19:27:07.901Z,98.03
2022-10-20T19:29:40.234Z,97.75
2022-10-20T19:32:11.360Z,98.18
2022-10-20T19:34:40.431Z,100.00
2022-10-20T19:37:08.623Z,100.00
2022-10-20T19:39:39.521Z,100.00
2022-10-20T19:42:08.205Z,100.00
2022-10-20T19:44:35.335Z,100.00
2022-10-20T19:47:04.009Z,100.00
2022-10-20T19:49:31.303Z,100.00
2022-10-20T19:51:58.122Z,100.00
2022-10-20T19:54:24.965Z,100.00
2022-10-20T19:56:52.081Z,100.00
2022-10-20T19:59:18.561Z,100.00
2022-10-20T20:01:45.106Z,100.00
2022-10-20T20:04:12.132Z,100.00
2022-10-20T20:06:38.888Z,100.00
2022-10-20T20:09:07.794Z,100.00
2022-10-20T20:11:37.397Z,100.00
2022-10-20T20:14:07.299Z,100.00
2022-10-20T20:16:36.262Z,100.00
2022-10-20T20:19:07.058Z,100.00
2022-10-20T20:21:34.116Z,100.00
2022-10-20T20:24:03.352Z,100.00
2022-10-20T20:26:34.741Z,100.00
2022-10-20T20:29:02.484Z,100.00
2022-10-20T20:31:30.586Z,100.00
2022-10-20T20:33:57.426Z,100.00
2022-10-20T20:36:27.037Z,100.00
2022-10-20T20:38:56.684Z,100.00
2022-10-20T20:41:31.986Z,100.00
2022-10-20T20:44:01.000Z,100.00
2022-10-20T20:46:31.069Z,100.00
2022-10-20T20:48:58.213Z,100.00
2022-10-20T20:51:25.978Z,100.00
2022-10-20T20:53:53.136Z,100.00
2022-10-20T20:56:21.960Z,100.00
2022-10-20T20:58:54.935Z,100.00
2022-10-20T21:01:34.763Z,100.00
2022-10-20T21:04:04.482Z,100.00
2022-10-20T21:06:56.536Z,100.00
2022-10-20T21:09:20.504Z,100.00
2022-10-20T21:11:49.020Z,100.00
2022-10-20T21:14:15.879Z,100.00
2022-10-20T21:16:42.368Z,100.00
2022-10-20T21:19:11.355Z,100.00
2022-10-20T21:21:50.963Z,100.00
2022-10-20T21:24:18.522Z,100.00
2022-10-20T21:26:45.481Z,100.00
2022-10-20T21:29:13.509Z,100.00
2022-10-20T21:31:41.592Z,100.00
2022-10-20T21:34:08.826Z,100.00
2022-10-20T21:36:39.225Z,100.00
2022-10-20T21:39:11.501Z,100.00
2022-10-20T21:41:41.925Z,100.00
2022-10-20T21:44:09.561Z,100.00
2022-10-20T21:46:44.113Z,100.00
2022-10-20T21:49:13.570Z,100.00
2022-10-20T21:51:46.673Z,100.00
2022-10-20T21:54:15.969Z,100.00
2022-10-20T21:56:45.319Z,100.00
2022-10-20T21:59:25.493Z,100.00
2022-10-20T22:01:55.698Z,100.00
2022-10-20T22:04:25.406Z,100.00
2022-10-20T22:06:52.648Z,100.00
2022-10-20T22:09:19.671Z,100.00
2022-10-20T22:11:50.609Z,100.00
2022-10-20T22:14:17.844Z,100.00
2022-10-20T22:16:44.361Z,100.00
2022-10-20T22:19:16.926Z,100.00
2022-10-20T22:21:45.731Z,100.00
2022-10-20T22:24:14.438Z,100.00
2022-10-20T22:26:42.447Z,100.00
2022-10-20T22:29:10.041Z,100.00
2022-10-20T22:31:38.914Z,100.00
2022-10-20T22:34:06.583Z,100.00
2022-10-20T22:36:33.186Z,100.00
2022-10-20T22:39:01.552Z,100.00
2022-10-20T22:41:28.366Z,100.00
2022-10-20T22:43:55.013Z,100.00
2022-10-20T22:46:21.764Z,100.00
2022-10-20T22:48:48.356Z,100.00
2022-10-20T22:51:15.534Z,100.00
2022-10-20T22:53:43.007Z,100.00
2022-10-20T22:56:14.234Z,100.00
2022-10-20T22:58:41.782Z,100.00
2022-10-20T23:01:14.002Z,100.00
2022-10-20T23:03:41.059Z,100.00
2022-10-20T23:06:13.942Z,100.00
2022-10-20T23:08:49.258Z,100.00
2022-10-20T23:11:17.077Z,100.00
2022-10-20T23:13:44.941Z,100.00
2022-10-20T23:16:11.764Z,100.00
2022-10-20T23:18:38.489Z,100.00
2022-10-20T23:21:06.259Z,100.00
2022-10-20T23:23:36.283Z,100.00
2022-10-20T23:26:06.577Z,100.00
2022-10-20T23:28:34.719Z,100.00
2022-10-20T23:31:09.558Z,100.00
2022-10-20T23:33:37.692Z,100.00
2022-10-20T23:36:04.883Z,100.00
2022-10-20T23:38:32.191Z,100.00
2022-10-20T23:40:59.468Z,100.00
2022-10-20T23:43:32.912Z,100.00
2022-10-20T23:46:00.162Z,100.00
2022-10-20T23:48:26.913Z,100.00
2022-10-20T23:50:54.542Z,100.00
2022-10-20T23:53:21.111Z,100.00
2022-10-20T23:55:47.929Z,100.00
2022-10-20T23:58:15.097Z,100.00
